createdAt,value
2019-03-16T00:00:04.671Z,19.78
2019-03-16T00:01:04.651Z,19.76
2019-03-16T00:02:04.644Z,19.71
2019-03-16T00:03:04.633Z,19.67
2019-03-16T00:04:04.632Z,19.68
2019-03-16T00:05:04.618Z,19.78
2019-03-16T00:06:04.608Z,19.72
2019-03-16T00:07:04.610Z,19.82
2019-03-16T00:08:04.595Z,19.68
2019-03-16T00:09:04.601Z,19.72
2019-03-16T00:10:04.577Z,19.78
2019-03-16T00:11:04.580Z,19.68
2019-03-16T00:12:04.586Z,19.72
2019-03-16T00:13:04.559Z,19.75
2019-03-16T00:14:04.570Z,19.75
2019-03-16T00:15:04.545Z,19.78
2019-03-16T00:16:04.561Z,19.75
2019-03-16T00:17:04.536Z,19.62
2019-03-16T00:18:04.530Z,19.70
2019-03-16T00:19:04.503Z,19.71
2019-03-16T00:20:04.489Z,19.70
2019-03-16T00:21:04.530Z,19.67
2019-03-16T00:22:04.487Z,19.71
2019-03-16T00:23:04.443Z,19.72
2019-03-16T00:24:04.426Z,19.75
2019-03-16T00:25:04.416Z,19.70
2019-03-16T00:26:04.414Z,19.68
2019-03-16T00:27:04.410Z,19.72
2019-03-16T00:28:04.408Z,19.68
2019-03-16T00:29:04.374Z,19.65
2019-03-16T00:30:04.370Z,19.72
2019-03-16T00:31:04.355Z,19.72
2019-03-16T00:32:13.296Z,19.67
2019-03-16T00:33:05.333Z,19.72
2019-03-16T00:34:04.328Z,19.67
2019-03-16T00:35:04.313Z,19.72
2019-03-16T00:36:04.302Z,19.76
2019-03-16T00:37:04.351Z,19.67
2019-03-16T00:38:04.287Z,19.70
2019-03-16T00:39:04.369Z,19.68
2019-03-16T00:40:04.287Z,19.68
2019-03-16T00:41:04.258Z,19.76
2019-03-16T00:42:04.245Z,19.72
2019-03-16T00:43:04.240Z,19.67
2019-03-16T00:44:04.230Z,19.71
2019-03-16T00:45:04.247Z,19.76
2019-03-16T00:46:04.203Z,19.68
2019-03-16T00:47:04.190Z,19.62
2019-03-16T00:48:04.197Z,19.65
2019-03-16T00:49:04.170Z,19.70
2019-03-16T00:50:04.164Z,19.67
2019-03-16T00:51:04.143Z,19.62
2019-03-16T00:52:04.134Z,19.76
2019-03-16T00:53:04.122Z,19.67
2019-03-16T00:54:04.101Z,19.65
2019-03-16T00:55:04.084Z,19.68
2019-03-16T00:56:04.066Z,19.70
2019-03-16T00:57:04.042Z,19.72
2019-03-16T00:58:04.030Z,19.67
2019-03-16T00:59:04.038Z,19.72
2019-03-16T01:00:04.006Z,19.72
2019-03-16T01:01:04.003Z,19.70
2019-03-16T01:02:03.972Z,19.68
2019-03-16T01:03:03.964Z,19.71
2019-03-16T01:04:03.946Z,19.67
2019-03-16T01:05:03.930Z,19.72
2019-03-16T01:06:03.914Z,19.68
2019-03-16T01:07:03.909Z,19.61
2019-03-16T01:08:03.879Z,19.67
2019-03-16T01:09:03.873Z,19.65
2019-03-16T01:10:03.854Z,19.68
2019-03-16T01:11:03.867Z,19.70
2019-03-16T01:12:03.840Z,19.70
2019-03-16T01:13:03.837Z,19.71
2019-03-16T01:14:03.808Z,19.64
2019-03-16T01:15:03.800Z,19.65
2019-03-16T01:16:03.801Z,19.68
2019-03-16T01:17:03.788Z,19.68
2019-03-16T01:18:03.789Z,19.68
2019-03-16T01:19:03.773Z,19.67
2019-03-16T01:20:03.761Z,19.70
2019-03-16T01:21:03.743Z,19.67
2019-03-16T01:22:03.734Z,19.70
2019-03-16T01:23:03.764Z,19.67
2019-03-16T01:24:03.719Z,19.68
2019-03-16T01:25:03.701Z,19.62
2019-03-16T01:26:03.713Z,19.70
2019-03-16T01:27:03.675Z,19.70
2019-03-16T01:28:03.659Z,19.71
2019-03-16T01:29:03.669Z,19.72
2019-03-16T01:30:03.654Z,19.67
2019-03-16T01:31:03.649Z,19.67
2019-03-16T01:32:03.619Z,19.60
2019-03-16T01:33:03.622Z,19.62
2019-03-16T01:34:03.604Z,19.67
2019-03-16T01:35:03.605Z,19.71
2019-03-16T01:36:03.596Z,19.71
2019-03-16T01:37:03.595Z,19.67
2019-03-16T01:38:03.572Z,19.65
2019-03-16T01:39:03.560Z,19.65
2019-03-16T01:40:03.553Z,19.71
2019-03-16T01:41:03.545Z,19.64
2019-03-16T01:42:03.553Z,19.64
2019-03-16T01:43:03.533Z,19.68
2019-03-16T01:44:03.519Z,19.67
2019-03-16T01:45:03.533Z,19.62
2019-03-16T01:46:03.490Z,19.65
2019-03-16T01:47:03.476Z,19.65
2019-03-16T01:48:03.477Z,19.71
2019-03-16T01:49:03.462Z,19.64
2019-03-16T01:50:03.440Z,19.64
2019-03-16T01:51:03.435Z,19.65
2019-03-16T01:52:03.420Z,19.68
2019-03-16T01:53:03.418Z,19.68
2019-03-16T01:54:03.406Z,19.61
2019-03-16T01:55:03.393Z,19.55
2019-03-16T01:56:03.376Z,19.64
2019-03-16T01:57:03.366Z,19.60
2019-03-16T01:58:03.351Z,19.58
2019-03-16T01:59:03.340Z,19.64
2019-03-16T02:00:03.327Z,19.60
2019-03-16T02:01:03.303Z,19.67
2019-03-16T02:02:03.291Z,19.65
2019-03-16T02:03:03.299Z,19.62
2019-03-16T02:04:03.315Z,19.60
2019-03-16T02:05:03.267Z,19.62
2019-03-16T02:06:03.251Z,19.65
2019-03-16T02:07:03.240Z,19.64
2019-03-16T02:08:03.228Z,19.58
2019-03-16T02:09:03.223Z,19.61
2019-03-16T02:10:03.209Z,19.61
2019-03-16T02:11:03.205Z,19.57
2019-03-16T02:12:03.193Z,19.61
2019-03-16T02:13:03.189Z,19.67
2019-03-16T02:14:03.193Z,19.61
2019-03-16T02:15:03.175Z,19.58
2019-03-16T02:16:10.815Z,19.50
2019-03-16T02:17:04.154Z,19.64
2019-03-16T02:18:03.154Z,19.55
2019-03-16T02:19:03.250Z,19.68
2019-03-16T02:20:03.132Z,19.52
2019-03-16T02:21:03.137Z,19.58
2019-03-16T02:22:03.115Z,19.55
2019-03-16T02:23:03.102Z,19.57
2019-03-16T02:24:03.101Z,19.53
2019-03-16T02:25:03.086Z,19.60
2019-03-16T02:26:03.098Z,19.53
2019-03-16T02:27:03.066Z,19.60
2019-03-16T02:28:03.054Z,19.68
2019-03-16T02:29:03.067Z,19.50
2019-03-16T02:30:03.049Z,19.58
2019-03-16T02:31:03.054Z,19.65
2019-03-16T02:32:03.046Z,19.53
2019-03-16T02:33:12.720Z,19.60
2019-03-16T02:34:04.053Z,19.55
2019-03-16T02:35:03.029Z,19.64
2019-03-16T02:36:03.022Z,19.55
2019-03-16T02:37:03.017Z,19.57
2019-03-16T02:38:03.065Z,19.60
2019-03-16T02:39:03.028Z,19.55
2019-03-16T02:40:03.009Z,19.58
2019-03-16T02:41:03.006Z,19.65
2019-03-16T02:42:03.003Z,19.57
2019-03-16T02:43:03.007Z,19.57
2019-03-16T02:44:02.993Z,19.58
2019-03-16T02:45:03.002Z,19.58
2019-03-16T02:46:02.963Z,19.53
2019-03-16T02:47:02.955Z,19.50
2019-03-16T02:48:02.947Z,19.55
2019-03-16T02:49:02.953Z,19.53
2019-03-16T02:50:02.940Z,19.55
2019-03-16T02:51:02.935Z,19.50
2019-03-16T02:52:02.923Z,19.57
2019-03-16T02:53:02.912Z,19.55
2019-03-16T02:54:02.904Z,19.57
2019-03-16T02:55:02.908Z,19.55
2019-03-16T02:56:02.913Z,19.55
2019-03-16T02:57:02.893Z,19.58
2019-03-16T02:58:02.884Z,19.52
2019-03-16T02:59:02.880Z,19.52
2019-03-16T03:00:02.901Z,19.55
2019-03-16T03:01:03.003Z,19.64
2019-03-16T03:02:02.890Z,19.55
2019-03-16T03:03:02.866Z,19.50
2019-03-16T03:04:02.876Z,19.50
2019-03-16T03:05:02.879Z,19.55
2019-03-16T03:06:02.861Z,19.50
2019-03-16T03:07:02.891Z,19.50
2019-03-16T03:08:02.842Z,19.55
2019-03-16T03:09:02.836Z,19.52
2019-03-16T03:10:02.828Z,19.55
2019-03-16T03:11:02.816Z,19.53
2019-03-16T03:12:02.801Z,19.53
2019-03-16T03:13:02.800Z,19.55
2019-03-16T03:14:02.784Z,19.53
2019-03-16T03:15:02.798Z,19.52
2019-03-16T03:16:02.763Z,19.60
2019-03-16T03:17:02.756Z,19.53
2019-03-16T03:18:02.752Z,19.49
2019-03-16T03:19:02.741Z,19.55
2019-03-16T03:20:02.747Z,19.55
2019-03-16T03:21:02.728Z,19.53
2019-03-16T03:22:02.724Z,19.58
2019-03-16T03:23:02.750Z,19.60
2019-03-16T03:24:02.706Z,19.52
2019-03-16T03:25:02.728Z,19.55
2019-03-16T03:26:02.704Z,19.55
2019-03-16T03:27:02.692Z,19.62
2019-03-16T03:28:02.691Z,19.52
2019-03-16T03:29:02.726Z,19.50
2019-03-16T03:30:02.701Z,19.55
2019-03-16T03:31:02.701Z,19.50
2019-03-16T03:32:02.694Z,19.55
2019-03-16T03:33:02.718Z,19.55
2019-03-16T03:34:03.044Z,19.57
2019-03-16T03:35:02.645Z,19.68
2019-03-16T03:36:02.639Z,19.50
2019-03-16T03:37:02.629Z,19.53
2019-03-16T03:38:02.622Z,19.60
2019-03-16T03:39:02.614Z,19.50
2019-03-16T03:40:02.609Z,19.53
2019-03-16T03:41:02.624Z,19.58
2019-03-16T03:42:02.607Z,19.52
2019-03-16T03:43:02.631Z,19.53
2019-03-16T03:44:02.598Z,19.55
2019-03-16T03:45:02.591Z,19.50
2019-03-16T03:46:02.587Z,19.60
2019-03-16T03:47:02.578Z,19.60
2019-03-16T03:48:02.568Z,19.47
2019-03-16T03:49:02.548Z,19.50
2019-03-16T03:50:02.546Z,19.53
2019-03-16T03:51:02.545Z,19.61
2019-03-16T03:52:02.521Z,19.58
2019-03-16T03:53:02.510Z,19.58
2019-03-16T03:54:02.503Z,19.55
2019-03-16T03:55:02.497Z,19.57
2019-03-16T03:56:02.513Z,19.55
2019-03-16T03:57:02.484Z,19.52
2019-03-16T03:58:02.475Z,19.58
2019-03-16T03:59:02.478Z,19.53
2019-03-16T04:00:02.465Z,19.52
2019-03-16T04:01:02.468Z,19.60
2019-03-16T04:02:02.458Z,19.62
2019-03-16T04:03:02.452Z,19.57
2019-03-16T04:04:15.447Z,19.52
2019-03-16T04:05:03.441Z,19.60
2019-03-16T04:06:02.649Z,19.49
2019-03-16T04:07:02.431Z,19.50
2019-03-16T04:08:02.424Z,19.49
2019-03-16T04:09:02.433Z,19.50
2019-03-16T04:10:02.417Z,19.55
2019-03-16T04:11:02.457Z,19.53
2019-03-16T04:12:02.395Z,19.52
2019-03-16T04:13:02.391Z,19.49
2019-03-16T04:14:02.391Z,19.58
2019-03-16T04:15:02.391Z,19.49
2019-03-16T04:16:02.390Z,19.52
2019-03-16T04:17:02.458Z,19.49
2019-03-16T04:18:02.394Z,19.50
2019-03-16T04:19:02.385Z,19.50
2019-03-16T04:20:02.385Z,19.46
2019-03-16T04:21:02.651Z,19.49
2019-03-16T04:22:02.375Z,19.52
2019-03-16T04:23:02.369Z,19.50
2019-03-16T04:24:02.419Z,19.52
2019-03-16T04:25:02.361Z,19.49
2019-03-16T04:26:02.344Z,19.52
2019-03-16T04:27:14.878Z,19.52
2019-03-16T04:28:03.334Z,19.49
2019-03-16T04:29:02.313Z,19.53
2019-03-16T04:30:02.335Z,19.49
2019-03-16T04:31:02.305Z,19.52
2019-03-16T04:32:02.311Z,19.50
2019-03-16T04:33:02.297Z,19.53
2019-03-16T04:34:02.288Z,19.52
2019-03-16T04:35:02.282Z,19.50
2019-03-16T04:36:02.278Z,19.53
2019-03-16T04:37:02.279Z,19.49
2019-03-16T04:38:02.293Z,19.43
2019-03-16T04:39:02.274Z,19.50
2019-03-16T04:40:02.256Z,19.53
2019-03-16T04:41:02.247Z,19.52
2019-03-16T04:42:02.249Z,19.55
2019-03-16T04:43:02.234Z,19.52
2019-03-16T04:44:02.226Z,19.52
2019-03-16T04:45:02.229Z,19.47
2019-03-16T04:46:02.221Z,19.57
2019-03-16T04:47:02.215Z,19.49
2019-03-16T04:48:02.213Z,19.47
2019-03-16T04:49:02.206Z,19.46
2019-03-16T04:50:02.199Z,19.53
2019-03-16T04:51:02.283Z,19.50
2019-03-16T04:52:02.200Z,19.49
2019-03-16T04:53:02.199Z,19.52
2019-03-16T04:54:02.194Z,19.52
2019-03-16T04:55:02.200Z,19.50
2019-03-16T04:56:02.191Z,19.52
2019-03-16T04:57:02.201Z,19.49
2019-03-16T04:58:02.191Z,19.55
2019-03-16T04:59:02.175Z,19.47
2019-03-16T05:00:02.176Z,19.50
2019-03-16T05:01:02.172Z,19.50
2019-03-16T05:02:02.165Z,19.45
2019-03-16T05:03:02.158Z,19.46
2019-03-16T05:04:02.159Z,19.45
2019-03-16T05:05:02.150Z,19.53
2019-03-16T05:06:02.154Z,19.47
2019-03-16T05:07:02.158Z,19.46
2019-03-16T05:08:02.157Z,19.43
2019-03-16T05:09:02.157Z,19.45
2019-03-16T05:10:02.155Z,19.46
2019-03-16T05:11:02.156Z,19.46
2019-03-16T05:12:02.205Z,19.46
2019-03-16T05:13:02.155Z,19.39
2019-03-16T05:14:02.157Z,19.50
2019-03-16T05:15:02.153Z,19.55
2019-03-16T05:16:02.143Z,19.49
2019-03-16T05:17:02.150Z,19.52
2019-03-16T05:18:02.145Z,19.53
2019-03-16T05:19:02.157Z,19.52
2019-03-16T05:20:02.147Z,19.42
2019-03-16T05:21:02.148Z,19.50
2019-03-16T05:22:02.169Z,19.46
2019-03-16T05:23:02.150Z,19.40
2019-03-16T05:24:03.036Z,19.42
2019-03-16T05:25:02.178Z,19.43
2019-03-16T05:26:02.145Z,19.38
2019-03-16T05:27:02.176Z,19.49
2019-03-16T05:28:02.146Z,19.50
2019-03-16T05:29:02.141Z,19.53
2019-03-16T05:30:02.140Z,19.46
2019-03-16T05:31:02.139Z,19.50
2019-03-16T05:32:02.137Z,19.49
2019-03-16T05:33:02.135Z,19.50
2019-03-16T05:34:02.192Z,19.55
2019-03-16T05:35:02.129Z,19.40
2019-03-16T05:36:02.121Z,19.52
2019-03-16T05:37:02.114Z,19.43
2019-03-16T05:38:02.120Z,19.47
2019-03-16T05:39:02.132Z,19.52
2019-03-16T05:40:02.097Z,19.49
2019-03-16T05:41:02.091Z,19.50
2019-03-16T05:42:05.102Z,19.45
2019-03-16T05:43:02.088Z,19.35
2019-03-16T05:44:02.087Z,19.42
2019-03-16T05:45:02.084Z,19.50
2019-03-16T05:46:02.076Z,19.47
2019-03-16T05:47:02.088Z,19.43
2019-03-16T05:48:02.074Z,19.49
2019-03-16T05:49:02.074Z,19.45
2019-03-16T05:50:02.077Z,19.55
2019-03-16T05:51:02.069Z,19.50
2019-03-16T05:52:02.068Z,19.35
2019-03-16T05:53:02.055Z,19.35
2019-03-16T05:54:02.051Z,19.47
2019-03-16T05:55:02.037Z,19.47
2019-03-16T05:56:02.032Z,19.47
2019-03-16T05:57:02.038Z,19.53
2019-03-16T05:58:02.025Z,19.43
2019-03-16T05:59:02.017Z,19.40
2019-03-16T06:00:02.011Z,19.47
2019-03-16T06:01:02.002Z,19.50
2019-03-16T06:02:02.000Z,19.46
2019-03-16T06:03:01.989Z,19.49
2019-03-16T06:04:02.000Z,19.40
2019-03-16T06:05:10.432Z,19.49
2019-03-16T06:06:02.967Z,19.49
2019-03-16T06:07:01.951Z,19.52
2019-03-16T06:08:01.945Z,19.42
2019-03-16T06:09:01.949Z,19.49
2019-03-16T06:10:01.928Z,19.46
2019-03-16T06:11:01.935Z,19.42
2019-03-16T06:12:01.919Z,19.39
2019-03-16T06:13:01.915Z,19.39
2019-03-16T06:14:01.910Z,19.35
2019-03-16T06:15:01.905Z,19.47
2019-03-16T06:16:01.903Z,19.39
2019-03-16T06:17:01.943Z,19.40
2019-03-16T06:18:01.881Z,19.39
2019-03-16T06:19:01.865Z,19.50
2019-03-16T06:20:01.853Z,19.47
2019-03-16T06:21:01.837Z,19.52
2019-03-16T06:22:01.831Z,19.47
2019-03-16T06:23:01.838Z,19.50
2019-03-16T06:24:01.811Z,19.53
2019-03-16T06:25:01.807Z,19.49
2019-03-16T06:26:01.889Z,19.47
2019-03-16T06:27:01.781Z,19.45
2019-03-16T06:28:01.773Z,19.45
2019-03-16T06:29:01.786Z,19.49
2019-03-16T06:30:01.761Z,19.52
2019-03-16T06:31:01.751Z,19.55
2019-03-16T06:32:01.742Z,19.55
2019-03-16T06:33:01.738Z,19.55
2019-03-16T06:34:01.748Z,19.57
2019-03-16T06:35:01.739Z,19.52
2019-03-16T06:36:01.740Z,19.45
2019-03-16T06:37:01.717Z,19.53
2019-03-16T06:38:01.713Z,19.53
2019-03-16T06:39:01.714Z,19.47
2019-03-16T06:40:01.709Z,19.49
2019-03-16T06:41:01.689Z,19.50
2019-03-16T06:42:01.683Z,19.50
2019-03-16T06:43:01.675Z,19.55
2019-03-16T06:44:01.683Z,19.49
2019-03-16T06:45:01.665Z,19.47
2019-03-16T06:46:01.659Z,19.52
2019-03-16T06:47:01.659Z,19.53
2019-03-16T06:48:01.667Z,19.47
2019-03-16T06:49:01.667Z,19.55
2019-03-16T06:50:01.639Z,19.55
2019-03-16T06:51:01.621Z,19.49
2019-03-16T06:52:01.620Z,19.53
2019-03-16T06:53:01.606Z,19.52
2019-03-16T06:54:01.606Z,19.52
2019-03-16T06:55:01.598Z,19.58
2019-03-16T06:56:01.573Z,19.55
2019-03-16T06:57:01.571Z,19.46
2019-03-16T06:58:01.566Z,19.52
2019-03-16T06:59:01.560Z,19.47
2019-03-16T07:00:01.554Z,19.47
2019-03-16T07:01:01.543Z,19.52
2019-03-16T07:02:01.530Z,19.50
2019-03-16T07:03:01.593Z,19.52
2019-03-16T07:04:01.564Z,19.50
2019-03-16T07:05:01.503Z,19.52
2019-03-16T07:06:01.513Z,19.47
2019-03-16T07:07:01.483Z,19.50
2019-03-16T07:08:01.477Z,19.58
2019-03-16T07:09:01.475Z,19.60
2019-03-16T07:10:01.468Z,19.55
2019-03-16T07:11:01.467Z,19.61
2019-03-16T07:12:01.470Z,19.67
2019-03-16T07:13:01.463Z,19.67
2019-03-16T07:14:01.762Z,19.67
2019-03-16T07:15:01.471Z,19.62
2019-03-16T07:16:01.423Z,19.68
2019-03-16T07:17:02.585Z,19.70
2019-03-16T07:18:01.410Z,19.62
2019-03-16T07:19:01.420Z,19.67
2019-03-16T07:20:01.398Z,19.62
2019-03-16T07:21:01.397Z,19.60
2019-03-16T07:22:01.382Z,19.61
2019-03-16T07:23:01.375Z,19.58
2019-03-16T07:24:01.397Z,19.52
2019-03-16T07:25:01.363Z,19.49
2019-03-16T07:26:14.196Z,19.47
2019-03-16T07:27:02.343Z,19.49
2019-03-16T07:28:01.337Z,19.47
2019-03-16T07:29:01.342Z,19.47
2019-03-16T07:30:01.331Z,19.49
2019-03-16T07:31:01.321Z,19.58
2019-03-16T07:32:01.313Z,19.62
2019-03-16T07:33:01.310Z,19.50
2019-03-16T07:34:01.325Z,19.55
2019-03-16T07:35:01.308Z,19.58
2019-03-16T07:36:01.300Z,19.53
2019-03-16T07:37:01.290Z,19.60
2019-03-16T07:38:01.285Z,19.53
2019-03-16T07:39:01.276Z,19.61
2019-03-16T07:40:01.275Z,19.55
2019-03-16T07:41:01.278Z,19.62
2019-03-16T07:42:01.272Z,19.61
2019-03-16T07:43:01.261Z,19.62
2019-03-16T07:44:01.251Z,19.62
2019-03-16T07:45:08.306Z,19.64
2019-03-16T07:46:02.229Z,19.68
2019-03-16T07:47:01.227Z,19.71
2019-03-16T07:48:01.215Z,19.71
2019-03-16T07:49:01.207Z,19.83
2019-03-16T07:50:01.204Z,19.92
2019-03-16T07:51:01.185Z,19.89
2019-03-16T07:52:01.173Z,19.86
2019-03-16T07:53:01.158Z,19.94
2019-03-16T07:54:01.147Z,19.86
2019-03-16T07:55:01.150Z,19.92
2019-03-16T07:56:01.119Z,19.83
2019-03-16T07:57:01.104Z,19.90
2019-03-16T07:58:01.092Z,19.85
2019-03-16T07:59:01.074Z,19.89
2019-03-16T08:00:01.137Z,19.83
2019-03-16T08:01:03.355Z,19.83
2019-03-16T08:02:01.025Z,19.82
2019-03-16T08:03:01.012Z,19.95
2019-03-16T08:04:00.999Z,19.85
2019-03-16T08:05:00.994Z,19.87
2019-03-16T08:06:00.958Z,19.87
2019-03-16T08:07:00.940Z,19.98
2019-03-16T08:08:00.925Z,20.05
2019-03-16T08:09:00.918Z,20.08
2019-03-16T08:10:03.181Z,20.10
2019-03-16T08:11:00.852Z,20.13
2019-03-16T08:12:00.829Z,20.00
2019-03-16T08:13:00.902Z,20.08
2019-03-16T08:14:00.798Z,20.05
2019-03-16T08:15:00.785Z,20.02
2019-03-16T08:16:00.767Z,20.01
2019-03-16T08:17:00.746Z,19.85
2019-03-16T08:18:00.738Z,19.90
2019-03-16T08:19:00.714Z,19.86
2019-03-16T08:20:00.695Z,19.89
2019-03-16T08:21:00.680Z,19.85
2019-03-16T08:22:00.651Z,19.83
2019-03-16T08:23:00.635Z,19.83
2019-03-16T08:24:00.639Z,19.80
2019-03-16T08:25:00.630Z,19.79
2019-03-16T08:26:00.591Z,19.75
2019-03-16T08:27:00.579Z,19.71
2019-03-16T08:28:00.562Z,19.75
2019-03-16T08:29:00.555Z,19.64
2019-03-16T08:30:00.584Z,19.80
2019-03-16T08:31:00.534Z,19.70
2019-03-16T08:32:00.513Z,19.68
2019-03-16T08:33:00.507Z,19.78
2019-03-16T08:34:00.490Z,19.68
2019-03-16T08:35:01.030Z,19.76
2019-03-16T08:36:00.471Z,19.72
2019-03-16T08:37:00.462Z,19.71
2019-03-16T08:38:00.445Z,19.75
2019-03-16T08:39:00.439Z,19.68
2019-03-16T08:40:00.460Z,19.68
2019-03-16T08:41:00.435Z,19.70
2019-03-16T08:42:00.436Z,19.70
2019-03-16T08:43:00.415Z,19.75
2019-03-16T08:44:00.407Z,19.68
2019-03-16T08:45:00.517Z,19.68
2019-03-16T08:46:00.396Z,19.67
2019-03-16T08:47:00.363Z,19.65
2019-03-16T08:48:02.565Z,19.68
2019-03-16T08:49:00.402Z,19.71
2019-03-16T08:50:00.466Z,19.64
2019-03-16T08:51:00.329Z,19.70
2019-03-16T08:52:00.328Z,19.68
2019-03-16T08:53:00.306Z,19.71
2019-03-16T08:54:00.286Z,19.70
2019-03-16T08:55:00.496Z,19.64
2019-03-16T08:56:00.262Z,19.64
2019-03-16T08:57:00.252Z,19.67
2019-03-16T08:58:05.994Z,19.68
2019-03-16T08:59:01.221Z,19.61
2019-03-16T09:00:00.447Z,19.67
2019-03-16T09:01:00.199Z,19.70
2019-03-16T09:02:00.179Z,19.64
2019-03-16T09:03:00.185Z,19.57
2019-03-16T09:04:00.155Z,19.60
2019-03-16T09:05:00.348Z,19.65
2019-03-16T09:06:00.157Z,19.64
2019-03-16T09:07:00.130Z,19.70
2019-03-16T09:08:00.110Z,19.57
2019-03-16T09:09:00.091Z,19.62
2019-03-16T09:10:00.073Z,19.65
2019-03-16T09:11:00.071Z,19.57
2019-03-16T09:12:00.049Z,19.61
2019-03-16T09:13:00.039Z,19.57
2019-03-16T09:14:00.023Z,19.57
2019-03-16T09:15:00.002Z,19.57
2019-03-16T09:15:59.982Z,19.68
2019-03-16T09:16:59.966Z,19.62
2019-03-16T09:17:59.953Z,19.58
2019-03-16T09:18:59.931Z,19.68
2019-03-16T09:19:59.925Z,19.58
2019-03-16T09:20:59.923Z,19.65
2019-03-16T09:21:59.909Z,19.61
2019-03-16T09:22:59.895Z,19.57
2019-03-16T09:23:59.880Z,19.62
2019-03-16T09:24:59.873Z,19.60
2019-03-16T09:25:59.868Z,19.50
2019-03-16T09:26:59.889Z,19.50
2019-03-16T09:27:59.842Z,19.55
2019-03-16T09:29:00.484Z,19.50
2019-03-16T09:29:59.812Z,19.60
2019-03-16T09:30:59.807Z,19.57
2019-03-16T09:31:59.804Z,19.58
2019-03-16T09:32:59.791Z,19.55
2019-03-16T09:33:59.783Z,19.55
2019-03-16T09:34:59.783Z,19.52
2019-03-16T09:35:59.761Z,19.52
2019-03-16T09:36:59.756Z,19.55
2019-03-16T09:37:59.745Z,19.58
2019-03-16T09:38:59.727Z,19.55
2019-03-16T09:39:59.717Z,19.57
2019-03-16T09:40:59.707Z,19.60
2019-03-16T09:41:59.699Z,19.50
2019-03-16T09:42:59.689Z,19.50
2019-03-16T09:44:01.999Z,19.60
2019-03-16T09:44:59.664Z,19.55
2019-03-16T09:45:59.643Z,19.50
2019-03-16T09:46:59.667Z,19.57
2019-03-16T09:47:59.613Z,19.57
2019-03-16T09:48:59.600Z,19.61
2019-03-16T09:49:59.594Z,19.57
2019-03-16T09:50:59.578Z,19.58
2019-03-16T09:51:59.573Z,19.57
2019-03-16T09:52:59.570Z,19.58
2019-03-16T09:53:59.563Z,19.53
2019-03-16T09:54:59.553Z,19.55
2019-03-16T09:55:59.546Z,19.64
2019-03-16T09:57:01.549Z,19.62
2019-03-16T09:57:59.535Z,19.60
2019-03-16T09:58:59.531Z,19.60
2019-03-16T09:59:59.523Z,19.62
2019-03-16T10:00:59.516Z,19.55
2019-03-16T10:01:59.508Z,19.75
2019-03-16T10:02:59.507Z,19.67
2019-03-16T10:03:59.492Z,19.78
2019-03-16T10:04:59.490Z,19.83
2019-03-16T10:05:59.469Z,19.89
2019-03-16T10:06:59.458Z,19.92
2019-03-16T10:07:59.452Z,19.89
2019-03-16T10:08:59.442Z,19.87
2019-03-16T10:09:59.427Z,19.92
2019-03-16T10:10:59.412Z,19.94
2019-03-16T10:11:59.404Z,19.89
2019-03-16T10:12:59.396Z,20.04
2019-03-16T10:13:59.387Z,20.00
2019-03-16T10:14:59.381Z,19.97
2019-03-16T10:15:59.392Z,20.04
2019-03-16T10:16:59.374Z,20.05
2019-03-16T10:17:59.355Z,19.87
2019-03-16T10:18:59.341Z,20.01
2019-03-16T10:19:59.328Z,20.10
2019-03-16T10:20:59.324Z,20.05
2019-03-16T10:21:59.313Z,20.07
2019-03-16T10:22:59.300Z,20.01
2019-03-16T10:23:59.286Z,20.01
2019-03-16T10:24:59.273Z,20.00
2019-03-16T10:25:59.268Z,20.00
2019-03-16T10:26:59.404Z,20.01
2019-03-16T10:27:59.253Z,20.00
2019-03-16T10:28:59.240Z,19.92
2019-03-16T10:29:59.228Z,19.80
2019-03-16T10:30:59.225Z,19.85
2019-03-16T10:31:59.211Z,19.83
2019-03-16T10:32:59.211Z,19.90
2019-03-16T10:33:59.197Z,19.85
2019-03-16T10:34:59.183Z,19.85
2019-03-16T10:35:59.180Z,19.89
2019-03-16T10:36:59.165Z,19.89
2019-03-16T10:37:59.163Z,19.90
2019-03-16T10:38:59.155Z,19.78
2019-03-16T10:39:59.160Z,19.80
2019-03-16T10:40:59.140Z,19.76
2019-03-16T10:41:59.120Z,19.80
2019-03-16T10:42:59.120Z,19.92
2019-03-16T10:43:59.116Z,19.75
2019-03-16T10:44:59.102Z,19.85
2019-03-16T10:45:59.094Z,19.89
2019-03-16T10:46:59.086Z,19.76
2019-03-16T10:47:59.102Z,19.79
2019-03-16T10:48:59.093Z,19.79
2019-03-16T10:49:59.060Z,19.82
2019-03-16T10:50:59.049Z,19.79
2019-03-16T10:51:59.044Z,19.82
2019-03-16T10:52:59.037Z,19.83
2019-03-16T10:53:59.034Z,19.80
2019-03-16T10:54:59.018Z,19.71
2019-03-16T10:55:59.041Z,19.85
2019-03-16T10:56:59.002Z,19.94
2019-03-16T10:57:58.984Z,19.87
2019-03-16T10:58:58.974Z,19.90
2019-03-16T10:59:58.980Z,19.86
2019-03-16T11:00:58.964Z,20.04
2019-03-16T11:01:58.949Z,20.02
2019-03-16T11:02:58.934Z,20.00
2019-03-16T11:03:58.928Z,20.05
2019-03-16T11:04:58.914Z,20.07
2019-03-16T11:05:58.907Z,20.01
2019-03-16T11:06:58.890Z,20.15
2019-03-16T11:07:58.884Z,20.15
2019-03-16T11:08:58.874Z,20.17
2019-03-16T11:09:58.848Z,20.13
2019-03-16T11:10:58.834Z,20.17
2019-03-16T11:11:58.835Z,20.13
2019-03-16T11:12:58.808Z,20.08
2019-03-16T11:13:58.792Z,20.10
2019-03-16T11:14:58.774Z,20.15
2019-03-16T11:15:58.749Z,20.13
2019-03-16T11:16:58.747Z,20.13
2019-03-16T11:17:58.716Z,20.08
2019-03-16T11:18:58.728Z,20.22
2019-03-16T11:19:58.699Z,20.27
2019-03-16T11:20:58.688Z,20.19
2019-03-16T11:21:58.671Z,20.17
2019-03-16T11:22:58.654Z,20.16
2019-03-16T11:23:58.644Z,20.10
2019-03-16T11:24:58.639Z,20.23
2019-03-16T11:25:58.623Z,20.10
2019-03-16T11:26:58.598Z,20.17
2019-03-16T11:27:58.582Z,20.13
2019-03-16T11:29:08.487Z,20.05
2019-03-16T11:29:59.567Z,20.12
2019-03-16T11:30:58.554Z,20.15
2019-03-16T11:31:58.543Z,20.15
2019-03-16T11:32:58.524Z,20.15
2019-03-16T11:33:58.516Z,20.17
2019-03-16T11:34:58.505Z,20.22
2019-03-16T11:35:58.499Z,20.10
2019-03-16T11:36:58.476Z,20.10
2019-03-16T11:37:58.466Z,20.15
2019-03-16T11:38:58.449Z,20.05
2019-03-16T11:39:58.765Z,20.15
2019-03-16T11:40:58.425Z,20.17
2019-03-16T11:41:58.441Z,20.17
2019-03-16T11:42:58.417Z,20.23
2019-03-16T11:43:58.383Z,20.33
2019-03-16T11:44:58.391Z,20.27
2019-03-16T11:45:58.360Z,20.20
2019-03-16T11:46:58.343Z,20.17
2019-03-16T11:47:58.363Z,20.13
2019-03-16T11:48:58.314Z,20.16
2019-03-16T11:49:58.322Z,20.10
2019-03-16T11:50:58.291Z,20.05
2019-03-16T11:51:58.269Z,20.08
2019-03-16T11:52:58.271Z,20.05
2019-03-16T11:53:58.226Z,20.05
2019-03-16T11:54:58.220Z,20.01
2019-03-16T11:55:58.207Z,20.01
2019-03-16T11:56:58.192Z,20.01
2019-03-16T11:57:58.196Z,20.01
2019-03-16T11:58:58.172Z,20.08
2019-03-16T11:59:58.161Z,19.94
2019-03-16T12:00:58.151Z,19.87
2019-03-16T12:02:05.226Z,19.87
2019-03-16T12:02:59.116Z,19.90
2019-03-16T12:03:58.107Z,19.87
2019-03-16T12:04:58.084Z,19.87
2019-03-16T12:05:58.070Z,19.92
2019-03-16T12:06:58.053Z,19.90
2019-03-16T12:07:58.051Z,19.92
2019-03-16T12:08:58.030Z,19.92
2019-03-16T12:09:58.005Z,19.85
2019-03-16T12:10:57.991Z,19.89
2019-03-16T12:11:57.987Z,19.86
2019-03-16T12:12:57.958Z,19.85
2019-03-16T12:13:57.944Z,19.83
2019-03-16T12:14:57.929Z,19.86
2019-03-16T12:15:57.921Z,19.80
2019-03-16T12:16:57.918Z,19.78
2019-03-16T12:17:57.955Z,19.78
2019-03-16T12:18:57.878Z,19.85
2019-03-16T12:19:57.867Z,19.80
2019-03-16T12:20:57.864Z,19.85
2019-03-16T12:21:57.842Z,19.75
2019-03-16T12:22:57.839Z,19.86
2019-03-16T12:23:57.813Z,19.82
2019-03-16T12:24:57.794Z,19.79
2019-03-16T12:25:57.801Z,19.89
2019-03-16T12:26:57.758Z,19.78
2019-03-16T12:27:57.743Z,19.79
2019-03-16T12:28:57.728Z,19.78
2019-03-16T12:29:57.715Z,19.82
2019-03-16T12:30:57.703Z,19.82
2019-03-16T12:31:57.707Z,19.82
2019-03-16T12:32:57.674Z,19.85
2019-03-16T12:33:57.674Z,19.79
2019-03-16T12:34:57.649Z,19.82
2019-03-16T12:35:57.637Z,19.87
2019-03-16T12:36:57.649Z,19.83
2019-03-16T12:37:57.608Z,19.79
2019-03-16T12:38:57.603Z,19.89
2019-03-16T12:39:57.578Z,19.87
2019-03-16T12:40:57.564Z,19.86
2019-03-16T12:41:57.562Z,19.89
2019-03-16T12:42:57.539Z,19.86
2019-03-16T12:43:57.523Z,19.87
2019-03-16T12:44:57.507Z,19.85
2019-03-16T12:45:57.495Z,19.86
2019-03-16T12:46:57.495Z,19.83
2019-03-16T12:47:57.469Z,19.86
2019-03-16T12:48:57.456Z,19.89
2019-03-16T12:49:57.446Z,19.86
2019-03-16T12:50:57.464Z,19.87
2019-03-16T12:51:57.432Z,19.87